createdAt,value
2022-08-15T00:01:31.453Z,6.28
2022-08-15T00:04:05.220Z,6.51
2022-08-15T00:06:42.798Z,6.54
2022-08-15T00:09:16.972Z,6.61
2022-08-15T00:11:52.578Z,6.82
2022-08-15T00:14:35.559Z,6.59
2022-08-15T00:17:09.982Z,6.88
2022-08-15T00:19:43.193Z,6.91
2022-08-15T00:22:17.897Z,6.99
2022-08-15T00:24:51.482Z,6.94
2022-08-15T00:27:25.683Z,6.65
2022-08-15T00:29:54.314Z,6.60
2022-08-15T00:33:18.958Z,6.29
2022-08-15T00:35:10.910Z,6.63
2022-08-15T00:38:12.298Z,6.66
2022-08-15T00:40:26.112Z,6.56
2022-08-15T00:42:58.969Z,6.29
2022-08-15T00:45:34.371Z,7.04
2022-08-15T00:48:01.596Z,6.63
2022-08-15T00:50:34.159Z,6.54
2022-08-15T00:53:10.730Z,6.70
2022-08-15T00:55:43.354Z,7.28
2022-08-15T00:58:34.410Z,7.25
2022-08-15T01:01:03.871Z,7.37
2022-08-15T01:03:53.546Z,7.26
2022-08-15T01:06:28.432Z,6.88
2022-08-15T01:09:00.573Z,6.96
2022-08-15T01:11:44.501Z,6.85
2022-08-15T01:14:56.869Z,7.08
2022-08-15T01:17:00.216Z,6.97
2022-08-15T01:19:35.160Z,7.37
2022-08-15T01:22:22.420Z,6.85
2022-08-15T01:25:25.437Z,6.80
2022-08-15T01:28:08.981Z,7.02
2022-08-15T01:31:02.445Z,7.23
2022-08-15T01:33:33.557Z,7.12
2022-08-15T01:36:01.707Z,6.96
2022-08-15T01:39:00.082Z,7.34
2022-08-15T01:41:36.517Z,7.86
2022-08-15T01:44:32.262Z,7.55
2022-08-15T01:47:20.759Z,7.60
2022-08-15T01:49:59.135Z,7.46
2022-08-15T01:52:58.887Z,7.95
2022-08-15T01:55:32.765Z,7.96
2022-08-15T01:58:03.652Z,7.46
2022-08-15T02:00:30.504Z,7.49
2022-08-15T02:03:03.048Z,7.52
2022-08-15T02:05:31.219Z,7.40
2022-08-15T02:08:35.928Z,7.66
2022-08-15T02:10:45.055Z,7.97
2022-08-15T02:13:18.226Z,8.07
2022-08-15T02:15:52.797Z,7.65
2022-08-15T02:18:21.059Z,7.68
2022-08-15T02:20:47.885Z,8.16
2022-08-15T02:23:19.823Z,7.97
2022-08-15T02:25:49.464Z,8.20
2022-08-15T02:28:34.344Z,7.88
2022-08-15T02:31:10.849Z,7.84
2022-08-15T02:33:38.903Z,8.37
2022-08-15T02:36:12.577Z,8.86
2022-08-15T02:38:48.346Z,8.41
2022-08-15T02:41:21.578Z,8.62
2022-08-15T02:43:52.146Z,9.00
2022-08-15T02:46:29.371Z,8.52
2022-08-15T02:49:01.049Z,8.95
2022-08-15T02:51:32.295Z,8.77
2022-08-15T02:54:38.117Z,8.33
2022-08-15T02:57:04.666Z,8.31
2022-08-15T02:59:33.739Z,8.47
2022-08-15T03:02:04.646Z,8.35
2022-08-15T03:04:31.314Z,7.91
2022-08-15T03:07:00.543Z,8.66
2022-08-15T03:09:32.679Z,8.46
2022-08-15T03:12:07.724Z,8.14
2022-08-15T03:14:48.196Z,8.19
2022-08-15T03:17:19.462Z,8.24
2022-08-15T03:19:46.566Z,8.40
2022-08-15T03:22:20.139Z,8.48
2022-08-15T03:25:01.041Z,7.81
2022-08-15T03:27:29.019Z,7.54
2022-08-15T03:29:55.655Z,8.29
2022-08-15T03:32:32.333Z,8.45
2022-08-15T03:35:09.205Z,8.43
2022-08-15T03:37:43.197Z,8.25
2022-08-15T03:40:12.478Z,9.14
2022-08-15T03:42:39.308Z,9.05
2022-08-15T03:45:11.311Z,8.95
2022-08-15T03:47:42.284Z,8.53
2022-08-15T03:50:23.625Z,8.22
2022-08-15T03:53:03.179Z,7.65
2022-08-15T03:55:34.843Z,7.83
2022-08-15T03:58:04.337Z,7.94
2022-08-15T04:00:36.486Z,8.17
2022-08-15T04:03:12.742Z,7.58
2022-08-15T04:05:41.253Z,8.31
2022-08-15T04:08:44.665Z,8.32
2022-08-15T04:11:00.411Z,7.99
2022-08-15T04:13:27.793Z,8.15
2022-08-15T04:16:06.360Z,8.44
2022-08-15T04:18:50.306Z,8.44
2022-08-15T04:21:17.460Z,8.04
2022-08-15T04:23:47.419Z,7.75
2022-08-15T04:26:21.660Z,7.86
2022-08-15T04:28:55.333Z,8.44
2022-08-15T04:31:22.358Z,8.15
2022-08-15T04:34:01.617Z,8.52
2022-08-15T04:36:36.847Z,7.93
2022-08-15T04:39:04.084Z,7.95
2022-08-15T04:41:35.774Z,7.40
2022-08-15T04:44:17.205Z,7.75
2022-08-15T04:46:45.154Z,7.79
2022-08-15T04:49:12.986Z,8.02
2022-08-15T04:51:39.896Z,8.23
2022-08-15T04:54:06.562Z,7.84
2022-08-15T04:56:47.838Z,7.68
2022-08-15T04:59:35.326Z,7.65
2022-08-15T05:02:55.773Z,7.53
2022-08-15T05:04:54.006Z,7.32
2022-08-15T05:07:20.953Z,7.68
2022-08-15T05:09:58.777Z,7.24
2022-08-15T05:12:33.929Z,7.33
2022-08-15T05:15:03.450Z,7.83
2022-08-15T05:17:56.446Z,7.52
2022-08-15T05:20:20.787Z,7.43
2022-08-15T05:23:03.743Z,7.28
2022-08-15T05:25:33.100Z,7.60
2022-08-15T05:28:29.368Z,7.05
2022-08-15T05:30:57.578Z,7.12
2022-08-15T05:33:55.480Z,7.28
2022-08-15T05:36:27.202Z,7.42
2022-08-15T05:39:13.602Z,7.53
2022-08-15T05:42:31.126Z,8.24
2022-08-15T05:45:03.301Z,7.89
2022-08-15T05:47:44.649Z,8.21
2022-08-15T05:50:19.930Z,8.00
2022-08-15T05:53:20.702Z,8.35
2022-08-15T05:56:07.049Z,8.02
2022-08-15T05:58:45.917Z,7.80
2022-08-15T06:01:36.078Z,7.57
2022-08-15T06:04:30.178Z,8.08
2022-08-15T06:07:03.707Z,7.73
2022-08-15T06:09:55.363Z,8.02
2022-08-15T06:12:46.918Z,8.07
2022-08-15T06:15:42.759Z,8.30
2022-08-15T06:18:11.160Z,8.61
2022-08-15T06:20:51.489Z,8.18
2022-08-15T06:23:47.262Z,8.48
2022-08-15T06:26:42.479Z,9.23
2022-08-15T06:29:27.287Z,9.17
2022-08-15T06:32:05.723Z,9.44
2022-08-15T06:35:11.779Z,9.18
2022-08-15T06:38:30.861Z,8.48
2022-08-15T06:40:57.386Z,8.66
2022-08-15T06:43:24.989Z,8.50
2022-08-15T06:45:57.663Z,8.64
2022-08-15T06:48:58.601Z,8.42
2022-08-15T06:51:25.041Z,8.46
2022-08-15T06:54:36.006Z,11.06
2022-08-15T06:57:19.345Z,8.88
2022-08-15T07:00:35.079Z,10.20
2022-08-15T07:03:25.929Z,8.94
2022-08-15T07:08:31.976Z,9.62
2022-08-15T07:11:38.559Z,9.52
2022-08-15T07:14:33.028Z,9.82
2022-08-15T07:17:16.138Z,9.76
2022-08-15T07:19:56.825Z,9.92
2022-08-15T07:22:46.674Z,9.44
2022-08-15T07:25:19.415Z,8.87
2022-08-15T07:28:03.757Z,9.04
2022-08-15T07:30:49.130Z,8.65
2022-08-15T07:33:55.753Z,8.49
2022-08-15T07:36:34.401Z,8.30
2022-08-15T07:39:35.907Z,7.86
2022-08-15T07:42:28.900Z,7.85
2022-08-15T07:45:05.828Z,8.08
2022-08-15T07:47:34.608Z,8.32
2022-08-15T07:50:32.533Z,7.87
2022-08-15T07:53:15.545Z,7.90
2022-08-15T07:56:37.677Z,8.20
2022-08-15T07:59:23.487Z,7.29
2022-08-15T08:02:07.732Z,6.97
2022-08-15T08:04:37.785Z,7.26
2022-08-15T08:07:34.583Z,7.23
2022-08-15T08:10:23.738Z,7.62
2022-08-15T08:13:19.725Z,6.94
2022-08-15T08:16:20.782Z,6.61
2022-08-15T08:18:59.247Z,7.36
2022-08-15T08:21:47.216Z,7.21
2022-08-15T08:24:37.408Z,7.33
2022-08-15T08:27:32.026Z,7.27
2022-08-15T08:30:46.361Z,7.55
2022-08-15T08:33:41.629Z,7.29
2022-08-15T08:36:39.394Z,7.71
2022-08-15T08:39:33.622Z,7.37
2022-08-15T08:42:29.831Z,7.10
2022-08-15T08:45:15.619Z,7.06
2022-08-15T08:47:45.892Z,7.63
2022-08-15T08:50:51.321Z,7.68
2022-08-15T08:53:44.769Z,6.75
2022-08-15T08:56:32.392Z,6.42
2022-08-15T08:59:20.170Z,6.47
2022-08-15T09:02:09.664Z,6.14
2022-08-15T09:04:58.747Z,6.07
2022-08-15T09:07:37.015Z,6.35
2022-08-15T09:10:09.005Z,6.06
2022-08-15T09:12:42.659Z,5.97
2022-08-15T09:15:20.158Z,5.93
2022-08-15T09:17:59.940Z,6.53
2022-08-15T09:20:36.843Z,6.62
2022-08-15T09:23:09.807Z,6.47
2022-08-15T09:25:50.042Z,6.76
2022-08-15T09:28:36.712Z,7.85
2022-08-15T09:31:38.010Z,7.54
2022-08-15T09:34:42.811Z,7.50
2022-08-15T09:37:35.320Z,7.49
2022-08-15T09:40:58.753Z,7.72
2022-08-15T09:43:30.469Z,6.97
2022-08-15T09:46:36.623Z,6.85
2022-08-15T09:49:34.139Z,7.61
2022-08-15T09:52:35.362Z,7.27
2022-08-15T09:55:17.574Z,6.73
2022-08-15T09:57:54.528Z,6.82
2022-08-15T10:00:41.445Z,7.02
2022-08-15T10:03:24.359Z,6.17
2022-08-15T10:06:32.869Z,7.23
2022-08-15T10:08:57.385Z,6.79
2022-08-15T10:11:39.135Z,7.11
2022-08-15T10:14:22.784Z,6.65
2022-08-15T10:16:58.887Z,6.91
2022-08-15T10:19:39.512Z,7.03
2022-08-15T10:22:23.221Z,7.14
2022-08-15T10:25:14.578Z,6.81
2022-08-15T10:28:38.677Z,7.04
2022-08-15T10:31:06.853Z,7.32
2022-08-15T10:33:35.495Z,7.59
2022-08-15T10:36:27.849Z,7.73
2022-08-15T10:39:18.851Z,8.25
2022-08-15T10:42:21.692Z,8.26
2022-08-15T10:45:02.825Z,8.13
2022-08-15T10:48:02.091Z,8.24
2022-08-15T10:51:00.440Z,8.97
2022-08-15T10:54:00.043Z,9.26
2022-08-15T10:57:05.614Z,9.78
2022-08-15T10:59:24.466Z,9.79
2022-08-15T11:01:51.507Z,9.46
2022-08-15T11:04:58.010Z,9.39
2022-08-15T11:07:22.055Z,8.86
2022-08-15T11:10:04.115Z,8.60
2022-08-15T11:12:41.230Z,9.47
2022-08-15T11:15:33.218Z,9.66
2022-08-15T11:18:20.912Z,9.62
2022-08-15T11:20:52.849Z,9.68
2022-08-15T11:23:31.760Z,9.68
2022-08-15T11:26:00.178Z,8.91
2022-08-15T11:28:36.603Z,8.49
2022-08-15T11:31:17.166Z,8.59
2022-08-15T11:33:50.850Z,8.51
2022-08-15T11:36:29.659Z,7.97
2022-08-15T11:39:15.111Z,7.16
2022-08-15T11:41:56.464Z,7.33
2022-08-15T11:44:31.058Z,7.28
2022-08-15T11:46:58.110Z,7.54
2022-08-15T11:49:43.531Z,6.86
2022-08-15T11:52:39.214Z,6.47
2022-08-15T11:55:09.853Z,5.90
2022-08-15T11:57:46.709Z,6.04
2022-08-15T12:00:38.952Z,5.87
2022-08-15T12:06:28.980Z,5.87
2022-08-15T12:09:42.506Z,5.59
2022-08-15T12:12:26.560Z,5.72
2022-08-15T12:13:12.383Z,5.68
2022-08-15T12:15:17.918Z,5.77
2022-08-15T12:18:06.976Z,5.85
2022-08-15T12:20:46.857Z,5.82
2022-08-15T12:23:54.260Z,6.03
2022-08-15T12:26:39.816Z,5.96
2022-08-15T12:29:11.513Z,6.20
2022-08-15T12:31:42.327Z,6.58
2022-08-15T12:34:27.543Z,6.18
2022-08-15T12:37:03.693Z,5.96
2022-08-15T12:39:36.337Z,6.02
2022-08-15T12:42:49.107Z,5.81
2022-08-15T12:44:59.582Z,5.88
2022-08-15T12:47:31.660Z,6.33
2022-08-15T12:49:58.640Z,6.19
2022-08-15T12:52:26.452Z,5.92
2022-08-15T12:54:53.602Z,5.69
2022-08-15T12:57:22.619Z,6.17
2022-08-15T12:59:49.856Z,6.17
2022-08-15T13:02:46.874Z,5.95
2022-08-15T13:05:10.768Z,5.81
2022-08-15T13:08:06.089Z,6.03
2022-08-15T13:11:00.817Z,6.18
2022-08-15T13:13:14.999Z,6.11
2022-08-15T13:15:41.934Z,6.02
2022-08-15T13:18:18.571Z,6.32
2022-08-15T13:20:57.620Z,5.83
2022-08-15T13:23:25.264Z,5.63
2022-08-15T13:25:56.564Z,5.55
2022-08-15T13:28:23.924Z,5.69
2022-08-15T13:31:05.597Z,5.41
2022-08-15T13:33:34.732Z,5.42
2022-08-15T13:36:28.965Z,5.10
2022-08-15T13:39:01.275Z,5.32
2022-08-15T13:41:48.724Z,5.09
2022-08-15T13:44:31.331Z,5.32
2022-08-15T13:47:00.732Z,5.15
2022-08-15T13:49:28.444Z,5.35
2022-08-15T13:52:00.703Z,5.63
2022-08-15T13:54:47.844Z,5.54
2022-08-15T13:57:19.969Z,5.46
2022-08-15T13:59:50.258Z,5.97
2022-08-15T14:02:35.868Z,6.11
2022-08-15T14:05:06.561Z,5.79
2022-08-15T14:07:50.284Z,5.66
2022-08-15T14:11:11.448Z,6.22
2022-08-15T14:13:13.962Z,6.06
2022-08-15T14:16:08.081Z,5.60
2022-08-15T14:18:51.700Z,5.88
2022-08-15T14:21:27.514Z,5.65
2022-08-15T14:23:57.863Z,5.85
2022-08-15T14:27:07.449Z,5.65
2022-08-15T14:29:34.015Z,5.90
2022-08-15T14:35:09.913Z,5.69
2022-08-15T14:40:38.854Z,5.57
2022-08-15T14:43:09.897Z,5.88
2022-08-15T14:46:33.530Z,6.45
2022-08-15T14:48:47.652Z,5.82
2022-08-15T14:52:02.028Z,5.71
2022-08-15T14:54:39.734Z,5.76
2022-08-15T14:56:56.742Z,6.04
2022-08-15T14:59:23.642Z,5.86
2022-08-15T15:01:58.411Z,5.65
2022-08-15T15:04:26.130Z,5.51
2022-08-15T15:06:54.154Z,5.55
2022-08-15T15:09:20.857Z,5.50
2022-08-15T15:11:53.358Z,5.51
2022-08-15T15:14:21.380Z,5.68
2022-08-15T15:16:52.399Z,5.81
2022-08-15T15:19:30.183Z,5.84
2022-08-15T15:22:17.405Z,5.61
2022-08-15T15:24:48.246Z,5.55
2022-08-15T15:27:19.396Z,5.62
2022-08-15T15:29:50.578Z,5.75
2022-08-15T15:32:30.837Z,5.73
2022-08-15T15:35:09.809Z,5.52
2022-08-15T15:37:38.118Z,5.77
2022-08-15T15:40:11.413Z,5.51
2022-08-15T15:42:48.377Z,5.79
2022-08-15T15:45:15.943Z,5.45
2022-08-15T15:48:02.240Z,5.82
2022-08-15T15:50:30.922Z,5.64
2022-08-15T15:53:23.629Z,5.63
2022-08-15T15:55:50.714Z,6.00
2022-08-15T15:58:59.659Z,5.50
2022-08-15T16:02:35.958Z,5.97
2022-08-15T16:03:57.878Z,5.66
2022-08-15T16:07:03.676Z,5.85
2022-08-15T16:09:22.224Z,5.74
2022-08-15T16:12:59.988Z,5.76
2022-08-15T16:15:08.170Z,5.80
2022-08-15T16:17:37.346Z,5.60
2022-08-15T16:20:41.282Z,5.81
2022-08-15T16:23:11.998Z,6.30
2022-08-15T16:26:15.294Z,5.86
2022-08-15T16:29:03.729Z,5.96
2022-08-15T16:31:44.636Z,5.86
2022-08-15T16:34:45.358Z,5.99
2022-08-15T16:37:17.970Z,5.81
2022-08-15T16:40:25.509Z,5.62
2022-08-15T16:43:00.132Z,5.53
2022-08-15T16:45:59.551Z,5.73
2022-08-15T16:48:35.373Z,5.68
2022-08-15T16:51:35.893Z,5.58
2022-08-15T16:54:02.688Z,5.93
2022-08-15T16:56:41.245Z,5.77
2022-08-15T16:59:34.056Z,5.76
2022-08-15T17:03:07.927Z,5.81
2022-08-15T17:06:03.132Z,5.96
2022-08-15T17:08:50.503Z,5.87
2022-08-15T17:12:02.614Z,5.92
2022-08-15T17:15:14.276Z,5.89
2022-08-15T17:18:02.237Z,6.04
2022-08-15T17:20:41.578Z,5.91
2022-08-15T17:23:25.883Z,5.92
2022-08-15T17:26:58.410Z,6.42
2022-08-15T17:29:04.233Z,6.37
2022-08-15T17:31:35.290Z,5.70
2022-08-15T17:34:41.268Z,6.09
2022-08-15T17:37:05.327Z,6.02
2022-08-15T17:39:53.255Z,5.69
2022-08-15T17:42:32.329Z,6.14
2022-08-15T17:45:37.073Z,5.97
2022-08-15T17:48:30.059Z,5.97
2022-08-15T17:51:18.568Z,5.87
2022-08-15T17:53:51.810Z,6.15
2022-08-15T17:56:23.636Z,5.99
2022-08-15T17:59:09.998Z,5.97
2022-08-15T18:01:39.235Z,5.97
2022-08-15T18:04:08.403Z,5.56
2022-08-15T18:06:37.240Z,5.85
2022-08-15T18:09:16.528Z,5.85
2022-08-15T18:12:17.092Z,6.07
2022-08-15T18:14:46.087Z,5.66
2022-08-15T18:17:24.481Z,5.68
2022-08-15T18:20:24.323Z,5.51
2022-08-15T18:23:13.238Z,5.70
2022-08-15T18:25:48.365Z,5.84
2022-08-15T18:28:27.985Z,5.87
2022-08-15T18:30:56.760Z,5.69
2022-08-15T18:33:48.920Z,6.51
2022-08-15T18:36:29.480Z,6.43
2022-08-15T18:38:58.531Z,6.51
2022-08-15T18:41:30.778Z,6.08
2022-08-15T18:44:01.183Z,6.24
2022-08-15T18:46:37.997Z,5.90
2022-08-15T18:49:16.601Z,5.82
2022-08-15T18:51:56.554Z,5.75
2022-08-15T18:54:48.549Z,5.57
2022-08-15T18:57:19.986Z,5.81
2022-08-15T19:00:32.914Z,5.81
2022-08-15T19:03:06.660Z,5.75
2022-08-15T19:05:43.598Z,5.77
2022-08-15T19:08:26.532Z,5.76
2022-08-15T19:10:57.650Z,5.57
2022-08-15T19:13:43.356Z,5.44
2022-08-15T19:16:45.506Z,5.46
2022-08-15T19:19:42.496Z,5.40
2022-08-15T19:22:10.382Z,5.38
2022-08-15T19:24:46.871Z,5.41
2022-08-15T19:27:41.698Z,5.63
2022-08-15T19:30:08.930Z,5.50
2022-08-15T19:32:57.215Z,5.88
2022-08-15T19:35:41.528Z,5.89
2022-08-15T19:38:26.978Z,5.42
2022-08-15T19:41:30.942Z,5.71
2022-08-15T19:44:22.215Z,5.35
2022-08-15T19:47:04.351Z,5.36
2022-08-15T19:50:04.349Z,5.37
2022-08-15T19:52:56.731Z,5.78
2022-08-15T19:55:56.617Z,5.89
2022-08-15T19:58:47.675Z,5.62
2022-08-15T20:01:22.059Z,5.97
2022-08-15T20:04:38.291Z,5.86
2022-08-15T20:07:26.883Z,5.67
2022-08-15T20:10:18.447Z,5.68
2022-08-15T20:13:12.643Z,5.93
2022-08-15T20:15:53.824Z,5.77
2022-08-15T20:18:30.257Z,5.96
2022-08-15T20:21:37.974Z,5.91
2022-08-15T20:24:04.971Z,5.93
2022-08-15T20:26:35.314Z,6.00
2022-08-15T20:29:33.083Z,6.12
2022-08-15T20:32:22.719Z,5.77
2022-08-15T20:35:16.288Z,5.94
2022-08-15T20:37:53.834Z,5.62
2022-08-15T20:40:24.263Z,5.66
2022-08-15T20:43:11.700Z,5.87
2022-08-15T20:45:44.638Z,5.81
2022-08-15T20:48:44.922Z,5.70
2022-08-15T20:51:11.897Z,5.91
2022-08-15T20:53:45.832Z,5.94
2022-08-15T20:56:33.675Z,5.48
2022-08-15T20:59:30.780Z,6.12
2022-08-15T21:02:32.974Z,5.73
2022-08-15T21:05:08.415Z,5.48
2022-08-15T21:07:57.054Z,5.63
2022-08-15T21:10:46.721Z,5.71
2022-08-15T21:13:50.947Z,6.29
2022-08-15T21:16:33.272Z,6.21
2022-08-15T21:19:19.558Z,6.03
2022-08-15T21:21:46.460Z,6.43
2022-08-15T21:24:28.628Z,6.27
2022-08-15T21:27:13.637Z,6.25
2022-08-15T21:29:47.380Z,5.89
2022-08-15T21:32:31.816Z,5.81
2022-08-15T21:35:34.398Z,6.09
2022-08-15T21:38:01.569Z,5.98
2022-08-15T21:40:40.329Z,6.20
2022-08-15T21:44:04.937Z,6.00
2022-08-15T21:46:50.588Z,6.21
2022-08-15T21:49:38.309Z,6.28
2022-08-15T21:52:16.910Z,6.38
2022-08-15T21:54:54.257Z,6.01
2022-08-15T21:57:25.313Z,5.77
2022-08-15T22:00:41.865Z,6.21
2022-08-15T22:03:22.982Z,6.12
2022-08-15T22:06:08.315Z,6.08
2022-08-15T22:08:54.950Z,5.76
2022-08-15T22:11:43.757Z,6.05
2022-08-15T22:14:27.826Z,6.15
2022-08-15T22:17:01.422Z,5.95
2022-08-15T22:19:40.398Z,6.16
2022-08-15T22:22:18.518Z,6.08
2022-08-15T22:24:50.230Z,5.95
2022-08-15T22:27:21.300Z,6.29
2022-08-15T22:29:50.863Z,6.02
2022-08-15T22:32:31.571Z,6.00
2022-08-15T22:35:07.075Z,6.14
2022-08-15T22:37:44.200Z,6.35
2022-08-15T22:40:19.377Z,6.33
2022-08-15T22:42:54.146Z,6.30
2022-08-15T22:45:46.977Z,6.46
2022-08-15T22:48:25.643Z,6.41
2022-08-15T22:51:19.359Z,6.45
2022-08-15T22:53:52.445Z,6.28
2022-08-15T22:56:45.361Z,6.44
2022-08-15T22:59:14.933Z,6.55
2022-08-15T23:01:50.028Z,6.22
2022-08-15T23:04:42.328Z,6.23
2022-08-15T23:07:28.798Z,6.51
2022-08-15T23:10:23.720Z,6.72
2022-08-15T23:12:55.311Z,6.48
2022-08-15T23:15:40.391Z,6.50
2022-08-15T23:18:28.604Z,6.46
2022-08-15T23:20:58.531Z,6.20
2022-08-15T23:23:36.930Z,6.50
2022-08-15T23:26:30.676Z,6.36
2022-08-15T23:28:59.130Z,6.40
2022-08-15T23:31:48.913Z,6.58
2022-08-15T23:34:21.138Z,6.43
2022-08-15T23:37:00.293Z,6.58
2022-08-15T23:40:06.932Z,6.26
2022-08-15T23:42:53.655Z,6.49
2022-08-15T23:45:24.789Z,6.24
2022-08-15T23:47:52.260Z,5.97
2022-08-15T23:50:21.488Z,6.53
2022-08-15T23:52:59.992Z,6.67
2022-08-15T23:55:31.458Z,6.36
2022-08-15T23:58:01.053Z,6.38
